sensor_id;sensor_type;location;lat;lon;timestamp;pressure;altitude;pressure_sealevel;temperature;humidity
59391;BME280;53405;57.012;40.984;2023-04-15T00:01:58;101563.50;;;-1.08;32.72
59391;BME280;53405;57.012;40.984;2023-04-15T00:04:27;101544.22;;;-1.22;32.71
59391;BME280;53405;57.012;40.984;2023-04-15T00:06:54;101547.59;;;-1.20;32.84
59391;BME280;53405;57.012;40.984;2023-04-15T00:09:22;101558.66;;;-1.16;32.87
59391;BME280;53405;57.012;40.984;2023-04-15T00:11:50;101556.78;;;-1.13;32.70
59391;BME280;53405;57.012;40.984;2023-04-15T00:14:17;101568.06;;;-1.15;32.96
59391;BME280;53405;57.012;40.984;2023-04-15T00:16:45;101562.25;;;-1.20;32.77
59391;BME280;53405;57.012;40.984;2023-04-15T00:19:12;101567.63;;;-1.25;33.20
59391;BME280;53405;57.012;40.984;2023-04-15T00:21:40;101562.50;;;-1.27;33.03
59391;BME280;53405;57.012;40.984;2023-04-15T00:24:08;101573.78;;;-1.28;33.29
59391;BME280;53405;57.012;40.984;2023-04-15T00:26:35;101572.09;;;-1.29;33.49
59391;BME280;53405;57.012;40.984;2023-04-15T00:29:03;101579.00;;;-1.29;33.20
59391;BME280;53405;57.012;40.984;2023-04-15T00:31:31;101581.84;;;-1.35;33.43
59391;BME280;53405;57.012;40.984;2023-04-15T00:33:59;101575.34;;;-1.46;33.49
59391;BME280;53405;57.012;40.984;2023-04-15T00:36:27;101584.47;;;-1.37;33.66
59391;BME280;53405;57.012;40.984;2023-04-15T00:38:55;101555.22;;;-1.59;33.82
59391;BME280;53405;57.012;40.984;2023-04-15T00:41:22;101586.25;;;-1.39;33.83
59391;BME280;53405;57.012;40.984;2023-04-15T00:43:52;101590.66;;;-1.41;33.56
59391;BME280;53405;57.012;40.984;2023-04-15T00:46:21;101593.38;;;-1.44;33.69
59391;BME280;53405;57.012;40.984;2023-04-15T00:48:48;101588.44;;;-1.50;33.92
59391;BME280;53405;57.012;40.984;2023-04-15T00:51:18;101561.72;;;-1.71;34.02
59391;BME280;53405;57.012;40.984;2023-04-15T00:53:45;101592.91;;;-1.54;33.96
59391;BME280;53405;57.012;40.984;2023-04-15T00:56:13;101589.47;;;-1.54;33.97
59391;BME280;53405;57.012;40.984;2023-04-15T00:58:40;101589.66;;;-1.59;33.90
59391;BME280;53405;57.012;40.984;2023-04-15T01:01:08;101557.88;;;-1.83;34.12
59391;BME280;53405;57.012;40.984;2023-04-15T01:03:37;101590.63;;;-1.61;34.00
59391;BME280;53405;57.012;40.984;2023-04-15T01:06:05;101583.22;;;-1.71;34.06
59391;BME280;53405;57.012;40.984;2023-04-15T01:08:33;101590.09;;;-1.70;34.01
59391;BME280;53405;57.012;40.984;2023-04-15T01:11:02;101546.41;;;-1.98;34.34
59391;BME280;53405;57.012;40.984;2023-04-15T01:13:30;101594.53;;;-1.73;34.26
59391;BME280;53405;57.012;40.984;2023-04-15T01:16:00;101593.72;;;-1.75;34.54
59391;BME280;53405;57.012;40.984;2023-04-15T01:18:29;101602.47;;;-1.78;34.53
59391;BME280;53405;57.012;40.984;2023-04-15T01:21:00;101580.69;;;-1.94;34.47
59391;BME280;53405;57.012;40.984;2023-04-15T01:23:28;101600.03;;;-1.83;34.40
59391;BME280;53405;57.012;40.984;2023-04-15T01:25:56;101600.03;;;-1.83;34.48
59391;BME280;53405;57.012;40.984;2023-04-15T01:28:25;101569.31;;;-2.12;34.57
59391;BME280;53405;57.012;40.984;2023-04-15T01:31:10;101607.97;;;-1.87;34.76
59391;BME280;53405;57.012;40.984;2023-04-15T01:33:40;101612.09;;;-1.83;34.67
59391;BME280;53405;57.012;40.984;2023-04-15T01:36:28;101614.03;;;-1.88;34.52
59391;BME280;53405;57.012;40.984;2023-04-15T01:38:57;101608.25;;;-1.95;34.86
59391;BME280;53405;57.012;40.984;2023-04-15T01:41:25;101604.09;;;-1.99;34.92
59391;BME280;53405;57.012;40.984;2023-04-15T01:43:55;101603.38;;;-2.03;35.16
59391;BME280;53405;57.012;40.984;2023-04-15T01:46:24;101615.16;;;-1.95;35.18
59391;BME280;53405;57.012;40.984;2023-04-15T01:48:54;101629.75;;;-1.94;35.30
59391;BME280;53405;57.012;40.984;2023-04-15T01:51:23;101627.16;;;-1.94;35.32
59391;BME280;53405;57.012;40.984;2023-04-15T01:53:52;101625.72;;;-2.02;35.29
59391;BME280;53405;57.012;40.984;2023-04-15T01:56:21;101629.19;;;-2.03;35.61
59391;BME280;53405;57.012;40.984;2023-04-15T01:58:51;101613.03;;;-2.08;35.49
59391;BME280;53405;57.012;40.984;2023-04-15T02:01:21;101626.72;;;-2.06;35.63
59391;BME280;53405;57.012;40.984;2023-04-15T02:05:17;101604.09;;;-2.23;35.80
59391;BME280;53405;57.012;40.984;2023-04-15T02:07:47;101633.63;;;-2.06;35.71
59391;BME280;53405;57.012;40.984;2023-04-15T02:10:16;101634.63;;;-2.10;35.94
59391;BME280;53405;57.012;40.984;2023-04-15T02:12:45;101640.56;;;-2.08;35.73
59391;BME280;53405;57.012;40.984;2023-04-15T02:15:13;101639.75;;;-2.09;35.87
59391;BME280;53405;57.012;40.984;2023-04-15T02:17:42;101652.72;;;-2.10;35.82
59391;BME280;53405;57.012;40.984;2023-04-15T02:20:16;101645.03;;;-2.12;35.83
59391;BME280;53405;57.012;40.984;2023-04-15T02:22:45;101651.81;;;-2.09;36.16
59391;BME280;53405;57.012;40.984;2023-04-15T02:25:15;101654.47;;;-2.11;36.02
59391;BME280;53405;57.012;40.984;2023-04-15T02:27:47;101620.03;;;-2.35;36.25
59391;BME280;53405;57.012;40.984;2023-04-15T02:30:17;101658.09;;;-2.16;36.30
59391;BME280;53405;57.012;40.984;2023-04-15T02:32:45;101662.41;;;-2.17;36.37
59391;BME280;53405;57.012;40.984;2023-04-15T02:35:14;101660.63;;;-2.15;36.42
59391;BME280;53405;57.012;40.984;2023-04-15T02:37:42;101657.31;;;-2.19;36.25
59391;BME280;53405;57.012;40.984;2023-04-15T02:40:13;101670.06;;;-2.14;36.40
59391;BME280;53405;57.012;40.984;2023-04-15T02:42:41;101667.59;;;-2.17;36.41
59391;BME280;53405;57.012;40.984;2023-04-15T02:45:14;101662.63;;;-2.23;36.27
59391;BME280;53405;57.012;40.984;2023-04-15T02:47:43;101677.63;;;-2.09;36.30
59391;BME280;53405;57.012;40.984;2023-04-15T02:50:13;101687.91;;;-2.08;36.23
59391;BME280;53405;57.012;40.984;2023-04-15T02:52:42;101687.00;;;-2.07;36.11
59391;BME280;53405;57.012;40.984;2023-04-15T02:55:11;101677.81;;;-2.14;36.25
59391;BME280;53405;57.012;40.984;2023-04-15T02:57:40;101691.28;;;-2.06;36.22
59391;BME280;53405;57.012;40.984;2023-04-15T03:00:10;101699.84;;;-2.05;35.98
59391;BME280;53405;57.012;40.984;2023-04-15T03:02:44;101697.91;;;-1.98;36.28
59391;BME280;53405;57.012;40.984;2023-04-15T03:05:13;101701.38;;;-2.00;36.01
59391;BME280;53405;57.012;40.984;2023-04-15T03:07:51;101699.56;;;-1.97;36.04
59391;BME280;53405;57.012;40.984;2023-04-15T03:10:20;101670.88;;;-2.13;35.65
59391;BME280;53405;57.012;40.984;2023-04-15T03:12:49;101706.38;;;-1.95;35.78
59391;BME280;53405;57.012;40.984;2023-04-15T03:15:52;101667.59;;;-2.17;35.82
59391;BME280;53405;57.012;40.984;2023-04-15T03:18:25;101707.16;;;-1.93;35.68
59391;BME280;53405;57.012;40.984;2023-04-15T03:20:54;101714.59;;;-1.84;35.58
59391;BME280;53405;57.012;40.984;2023-04-15T03:23:24;101718.84;;;-1.83;35.42
59391;BME280;53405;57.012;40.984;2023-04-15T03:25:54;101723.06;;;-1.80;35.52
59391;BME280;53405;57.012;40.984;2023-04-15T03:28:27;101724.03;;;-1.83;35.66
59391;BME280;53405;57.012;40.984;2023-04-15T03:30:59;101731.38;;;-1.72;35.41
59391;BME280;53405;57.012;40.984;2023-04-15T03:33:28;101734.63;;;-1.67;35.24
59391;BME280;53405;57.012;40.984;2023-04-15T03:35:58;101700.13;;;-1.89;35.26
59391;BME280;53405;57.012;40.984;2023-04-15T03:38:28;101740.06;;;-1.51;35.45
59391;BME280;53405;57.012;40.984;2023-04-15T03:40:58;101762.41;;;-1.48;34.90
59391;BME280;53405;57.012;40.984;2023-04-15T03:43:27;101741.94;;;-1.54;34.72
59391;BME280;53405;57.012;40.984;2023-04-15T03:45:56;101760.41;;;-1.41;34.76
59391;BME280;53405;57.012;40.984;2023-04-15T03:48:28;101712.94;;;-1.63;34.68
59391;BME280;53405;57.012;40.984;2023-04-15T03:50:57;101707.88;;;-1.66;34.77
59391;BME280;53405;57.012;40.984;2023-04-15T03:53:26;101754.03;;;-1.33;34.66
59391;BME280;53405;57.012;40.984;2023-04-15T03:55:56;101755.56;;;-1.27;34.31
59391;BME280;53405;57.012;40.984;2023-04-15T03:58:25;101765.72;;;-1.22;34.06
59391;BME280;53405;57.012;40.984;2023-04-15T04:00:54;101765.44;;;-1.15;34.31
59391;BME280;53405;57.012;40.984;2023-04-15T04:03:24;101773.84;;;-1.10;33.96
59391;BME280;53405;57.012;40.984;2023-04-15T04:05:53;101759.81;;;-1.02;34.09
59391;BME280;53405;57.012;40.984;2023-04-15T04:08:23;101771.56;;;-0.95;33.71
59391;BME280;53405;57.012;40.984;2023-04-15T04:10:52;101769.47;;;-0.85;33.90
59391;BME280;53405;57.012;40.984;2023-04-15T04:13:22;101758.09;;;-0.81;33.25
59391;BME280;53405;57.012;40.984;2023-04-15T04:15:51;101773.66;;;-0.61;33.28
59391;BME280;53405;57.012;40.984;2023-04-15T04:18:20;101764.94;;;-0.58;32.53
59391;BME280;53405;57.012;40.984;2023-04-15T04:20:50;101764.09;;;-0.59;32.31
59391;BME280;53405;57.012;40.984;2023-04-15T04:23:19;101738.00;;;-0.75;32.24
59391;BME280;53405;57.012;40.984;2023-04-15T04:25:49;101785.47;;;-0.53;32.06
59391;BME280;53405;57.012;40.984;2023-04-15T04:28:18;101785.94;;;-0.44;32.01
59391;BME280;53405;57.012;40.984;2023-04-15T04:30:48;101784.63;;;-0.33;31.76
59391;BME280;53405;57.012;40.984;2023-04-15T04:33:17;101787.69;;;-0.24;31.50
59391;BME280;53405;57.012;40.984;2023-04-15T04:35:47;101799.34;;;-0.13;31.77
59391;BME280;53405;57.012;40.984;2023-04-15T04:38:16;101796.69;;;-0.12;31.22
59391;BME280;53405;57.012;40.984;2023-04-15T04:40:45;101798.91;;;-0.03;31.22
59391;BME280;53405;57.012;40.984;2023-04-15T04:43:15;101727.53;;;-0.51;31.10
59391;BME280;53405;57.012;40.984;2023-04-15T04:45:44;101793.78;;;-0.04;30.98
59391;BME280;53405;57.012;40.984;2023-04-15T04:48:14;101800.97;;;0.10;31.18
59391;BME280;53405;57.012;40.984;2023-04-15T04:50:44;101801.28;;;0.23;31.26
59391;BME280;53405;57.012;40.984;2023-04-15T04:53:16;101762.63;;;-0.03;30.76
59391;BME280;53405;57.012;40.984;2023-04-15T04:55:46;101791.03;;;0.20;30.90
59391;BME280;53405;57.012;40.984;2023-04-15T04:58:15;101801.72;;;0.32;30.96
59391;BME280;53405;57.012;40.984;2023-04-15T05:00:44;101807.25;;;0.44;31.04
59391;BME280;53405;57.012;40.984;2023-04-15T05:03:14;101818.00;;;0.55;31.02
59391;BME280;53405;57.012;40.984;2023-04-15T05:05:43;101758.44;;;0.14;30.26
59391;BME280;53405;57.012;40.984;2023-04-15T05:08:13;101810.84;;;0.41;30.60
59391;BME280;53405;57.012;40.984;2023-04-15T05:10:43;101813.81;;;0.52;30.60
59391;BME280;53405;57.012;40.984;2023-04-15T05:13:12;101801.31;;;0.42;30.55
59391;BME280;53405;57.012;40.984;2023-04-15T05:15:42;101811.22;;;0.52;30.13
59391;BME280;53405;57.012;40.984;2023-04-15T05:18:11;101815.25;;;0.58;29.95
59391;BME280;53405;57.012;40.984;2023-04-15T05:20:40;101814.72;;;0.70;29.83
59391;BME280;53405;57.012;40.984;2023-04-15T05:23:11;101787.53;;;0.60;30.07
59391;BME280;53405;57.012;40.984;2023-04-15T05:25:41;101814.78;;;0.88;29.03
59391;BME280;53405;57.012;40.984;2023-04-15T05:28:11;101819.84;;;0.91;29.12
59391;BME280;53405;57.012;40.984;2023-04-15T05:30:40;101814.97;;;1.02;29.53
59391;BME280;53405;57.012;40.984;2023-04-15T05:33:10;101821.16;;;1.19;28.87
59391;BME280;53405;57.012;40.984;2023-04-15T05:35:39;101824.22;;;1.27;28.58
59391;BME280;53405;57.012;40.984;2023-04-15T05:38:09;101827.69;;;1.45;28.40
59391;BME280;53405;57.012;40.984;2023-04-15T05:40:38;101788.47;;;1.15;27.90
59391;BME280;53405;57.012;40.984;2023-04-15T05:43:07;101779.63;;;1.19;28.15
59391;BME280;53405;57.012;40.984;2023-04-15T05:45:37;101822.28;;;1.50;27.88
59391;BME280;53405;57.012;40.984;2023-04-15T05:48:06;101826.56;;;1.51;27.97
59391;BME280;53405;57.012;40.984;2023-04-15T05:50:36;101824.56;;;1.56;27.86
59391;BME280;53405;57.012;40.984;2023-04-15T05:53:05;101824.41;;;1.59;27.29
59391;BME280;53405;57.012;40.984;2023-04-15T05:55:35;101816.25;;;1.49;27.71
59391;BME280;53405;57.012;40.984;2023-04-15T05:58:04;101831.69;;;1.52;27.71
59391;BME280;53405;57.012;40.984;2023-04-15T06:00:34;101807.63;;;1.49;27.53
59391;BME280;53405;57.012;40.984;2023-04-15T06:03:04;101833.00;;;1.78;27.08
59391;BME280;53405;57.012;40.984;2023-04-15T06:05:34;101832.16;;;1.95;27.56
59391;BME280;53405;57.012;40.984;2023-04-15T06:08:03;101828.94;;;2.08;26.66
59391;BME280;53405;57.012;40.984;2023-04-15T06:10:34;101829.78;;;2.08;26.49
59391;BME280;53405;57.012;40.984;2023-04-15T06:13:05;101827.59;;;2.01;26.31
59391;BME280;53405;57.012;40.984;2023-04-15T06:15:35;101823.72;;;2.08;27.16
59391;BME280;53405;57.012;40.984;2023-04-15T06:18:04;101792.69;;;2.05;26.57
59391;BME280;53405;57.012;40.984;2023-04-15T06:20:33;101823.25;;;2.34;26.54
59391;BME280;53405;57.012;40.984;2023-04-15T06:23:03;101774.34;;;2.08;26.17
59391;BME280;53405;57.012;40.984;2023-04-15T06:25:32;101819.66;;;2.37;26.48
59391;BME280;53405;57.012;40.984;2023-04-15T06:28:02;101833.91;;;2.46;26.52
59391;BME280;53405;57.012;40.984;2023-04-15T06:30:31;101832.88;;;2.32;26.34
59391;BME280;53405;57.012;40.984;2023-04-15T06:33:01;101826.97;;;2.46;27.02
59391;BME280;53405;57.012;40.984;2023-04-15T06:35:33;101830.28;;;2.82;27.02
59391;BME280;53405;57.012;40.984;2023-04-15T06:38:02;101832.47;;;2.89;26.24
59391;BME280;53405;57.012;40.984;2023-04-15T06:40:32;101844.72;;;2.71;25.66
59391;BME280;53405;57.012;40.984;2023-04-15T06:43:02;101829.69;;;2.61;26.19
59391;BME280;53405;57.012;40.984;2023-04-15T06:45:32;101811.47;;;2.61;27.43
59391;BME280;53405;57.012;40.984;2023-04-15T06:48:02;101840.72;;;2.98;26.25
59391;BME280;53405;57.012;40.984;2023-04-15T06:50:31;101830.66;;;3.07;25.81
59391;BME280;53405;57.012;40.984;2023-04-15T06:53:00;101836.03;;;3.20;25.37
59391;BME280;53405;57.012;40.984;2023-04-15T06:55:29;101805.28;;;2.95;24.71
59391;BME280;53405;57.012;40.984;2023-04-15T06:57:58;101845.94;;;3.30;25.40
59391;BME280;53405;57.012;40.984;2023-04-15T07:00:28;101819.81;;;3.31;25.39
59391;BME280;53405;57.012;40.984;2023-04-15T07:02:58;101853.06;;;3.26;25.35
59391;BME280;53405;57.012;40.984;2023-04-15T07:05:33;101801.00;;;2.78;24.94
59391;BME280;53405;57.012;40.984;2023-04-15T07:08:02;101839.88;;;3.13;25.21
59391;BME280;53405;57.012;40.984;2023-04-15T07:10:32;101843.66;;;3.39;24.61
59391;BME280;53405;57.012;40.984;2023-04-15T07:13:01;101836.06;;;3.51;24.92
59391;BME280;53405;57.012;40.984;2023-04-15T07:15:30;101838.41;;;3.55;24.77
59391;BME280;53405;57.012;40.984;2023-04-15T07:17:59;101842.06;;;3.67;23.73
59391;BME280;53405;57.012;40.984;2023-04-15T07:20:27;101842.94;;;3.68;23.74
59391;BME280;53405;57.012;40.984;2023-04-15T07:22:56;101843.41;;;3.74;24.15
59391;BME280;53405;57.012;40.984;2023-04-15T07:25:25;101849.97;;;3.82;24.69
59391;BME280;53405;57.012;40.984;2023-04-15T07:27:54;101843.84;;;4.11;24.90
59391;BME280;53405;57.012;40.984;2023-04-15T07:30:23;101791.88;;;3.94;23.04
59391;BME280;53405;57.012;40.984;2023-04-15T07:32:51;101785.38;;;3.87;22.70
59391;BME280;53405;57.012;40.984;2023-04-15T07:35:21;101842.19;;;4.10;22.40
59391;BME280;53405;57.012;40.984;2023-04-15T07:37:51;101845.66;;;4.25;22.84
59391;BME280;53405;57.012;40.984;2023-04-15T07:40:19;101842.41;;;4.22;22.53
59391;BME280;53405;57.012;40.984;2023-04-15T07:42:49;101841.16;;;4.13;22.55
59391;BME280;53405;57.012;40.984;2023-04-15T07:45:19;101836.34;;;4.21;22.72
59391;BME280;53405;57.012;40.984;2023-04-15T07:47:50;101845.56;;;4.41;22.34
59391;BME280;53405;57.012;40.984;2023-04-15T07:50:18;101837.38;;;4.62;22.08
59391;BME280;53405;57.012;40.984;2023-04-15T07:52:51;101838.03;;;4.80;21.38
59391;BME280;53405;57.012;40.984;2023-04-15T07:55:20;101835.97;;;4.85;21.20
59391;BME280;53405;57.012;40.984;2023-04-15T07:57:50;101847.72;;;4.78;20.75
59391;BME280;53405;57.012;40.984;2023-04-15T08:00:19;101848.00;;;4.59;20.96
59391;BME280;53405;57.012;40.984;2023-04-15T08:02:48;101832.44;;;4.57;20.94
59391;BME280;53405;57.012;40.984;2023-04-15T08:05:17;101830.56;;;4.88;21.71
59391;BME280;53405;57.012;40.984;2023-04-15T08:07:47;101826.66;;;5.22;20.88
59391;BME280;53405;57.012;40.984;2023-04-15T08:10:18;101829.41;;;5.34;21.10
59391;BME280;53405;57.012;40.984;2023-04-15T08:12:48;101828.78;;;5.70;20.78
59391;BME280;53405;57.012;40.984;2023-04-15T08:15:17;101782.19;;;5.10;20.42
59391;BME280;53405;57.012;40.984;2023-04-15T08:17:47;101837.47;;;5.43;21.07
59391;BME280;53405;57.012;40.984;2023-04-15T08:20:16;101811.66;;;5.39;21.26
59391;BME280;53405;57.012;40.984;2023-04-15T08:22:45;101817.78;;;5.65;21.75
59391;BME280;53405;57.012;40.984;2023-04-15T08:25:15;101822.56;;;5.99;20.95
59391;BME280;53405;57.012;40.984;2023-04-15T08:27:44;101804.91;;;6.15;20.96
59391;BME280;53405;57.012;40.984;2023-04-15T08:30:14;101805.44;;;6.33;20.39
59391;BME280;53405;57.012;40.984;2023-04-15T08:32:46;101817.78;;;6.18;20.42
59391;BME280;53405;57.012;40.984;2023-04-15T08:35:15;101820.63;;;6.15;20.22
59391;BME280;53405;57.012;40.984;2023-04-15T08:37:44;101828.75;;;6.36;20.01
59391;BME280;53405;57.012;40.984;2023-04-15T08:40:16;101828.03;;;6.34;19.86
59391;BME280;53405;57.012;40.984;2023-04-15T08:42:53;101831.28;;;6.25;19.77
59391;BME280;53405;57.012;40.984;2023-04-15T08:45:24;101833.28;;;6.34;20.20
59391;BME280;53405;57.012;40.984;2023-04-15T08:47:54;101821.69;;;6.75;20.05
59391;BME280;53405;57.012;40.984;2023-04-15T08:50:25;101828.75;;;7.47;21.90
59391;BME280;53405;57.012;40.984;2023-04-15T08:53:00;101835.41;;;7.75;19.13
59391;BME280;53405;57.012;40.984;2023-04-15T08:55:32;101828.22;;;7.07;19.59
59391;BME280;53405;57.012;40.984;2023-04-15T08:58:03;101829.56;;;6.49;19.68
59391;BME280;53405;57.012;40.984;2023-04-15T09:00:32;101812.56;;;6.31;19.97
59391;BME280;53405;57.012;40.984;2023-04-15T09:03:06;101817.66;;;6.45;20.32
59391;BME280;53405;57.012;40.984;2023-04-15T09:05:36;101820.25;;;7.08;20.48
59391;BME280;53405;57.012;40.984;2023-04-15T09:08:05;101824.03;;;7.52;19.46
59391;BME280;53405;57.012;40.984;2023-04-15T09:10:37;101803.63;;;7.45;19.51
59391;BME280;53405;57.012;40.984;2023-04-15T09:13:43;101816.41;;;7.96;19.19
59391;BME280;53405;57.012;40.984;2023-04-15T09:17:00;101811.44;;;8.38;18.83
59391;BME280;53405;57.012;40.984;2023-04-15T09:19:36;101814.59;;;8.55;18.38
59391;BME280;53405;57.012;40.984;2023-04-15T09:22:32;101808.59;;;8.53;18.53
59391;BME280;53405;57.012;40.984;2023-04-15T09:25:00;101802.03;;;8.70;18.55
59391;BME280;53405;57.012;40.984;2023-04-15T09:27:29;101812.53;;;8.70;18.23
59391;BME280;53405;57.012;40.984;2023-04-15T09:29:59;101809.06;;;8.35;18.59
59391;BME280;53405;57.012;40.984;2023-04-15T09:32:28;101815.66;;;8.63;18.41
59391;BME280;53405;57.012;40.984;2023-04-15T09:34:57;101807.06;;;9.16;19.22
59391;BME280;53405;57.012;40.984;2023-04-15T09:37:38;101805.31;;;9.38;17.91
59391;BME280;53405;57.012;40.984;2023-04-15T09:40:08;101804.34;;;9.39;18.40
59391;BME280;53405;57.012;40.984;2023-04-15T09:42:54;101808.41;;;9.85;18.21
59391;BME280;53405;57.012;40.984;2023-04-15T09:49:09;101769.25;;;8.96;18.24
59391;BME280;53405;57.012;40.984;2023-04-15T09:51:38;101795.84;;;8.59;18.41
59391;BME280;53405;57.012;40.984;2023-04-15T09:54:06;101778.13;;;8.39;19.12
59391;BME280;53405;57.012;40.984;2023-04-15T09:56:38;101797.13;;;8.76;18.98
59391;BME280;53405;57.012;40.984;2023-04-15T09:59:08;101772.56;;;8.66;18.64
59391;BME280;53405;57.012;40.984;2023-04-15T10:01:54;101798.63;;;9.01;18.43
59391;BME280;53405;57.012;40.984;2023-04-15T10:04:24;101787.88;;;9.04;18.54
59391;BME280;53405;57.012;40.984;2023-04-15T10:06:56;101790.75;;;9.01;18.67
59391;BME280;53405;57.012;40.984;2023-04-15T10:09:28;101786.06;;;9.16;18.30
59391;BME280;53405;57.012;40.984;2023-04-15T10:11:58;101789.22;;;8.88;18.47
59391;BME280;53405;57.012;40.984;2023-04-15T10:14:32;101791.31;;;9.16;18.22
59391;BME280;53405;57.012;40.984;2023-04-15T10:17:03;101733.28;;;9.29;18.31
59391;BME280;53405;57.012;40.984;2023-04-15T10:19:35;101762.78;;;10.27;18.05
59391;BME280;53405;57.012;40.984;2023-04-15T10:22:05;101771.84;;;10.84;17.37
59391;BME280;53405;57.012;40.984;2023-04-15T10:24:35;101790.53;;;10.62;17.51
59391;BME280;53405;57.012;40.984;2023-04-15T10:27:07;101785.78;;;10.56;17.66
59391;BME280;53405;57.012;40.984;2023-04-15T10:29:37;101761.19;;;10.96;17.85
59391;BME280;53405;57.012;40.984;2023-04-15T10:32:07;101774.47;;;10.84;17.39
59391;BME280;53405;57.012;40.984;2023-04-15T10:34:37;101788.06;;;10.80;17.57
59391;BME280;53405;57.012;40.984;2023-04-15T10:37:09;101776.28;;;10.74;17.55
59391;BME280;53405;57.012;40.984;2023-04-15T10:39:42;101780.47;;;11.26;17.19
59391;BME280;53405;57.012;40.984;2023-04-15T10:42:18;101773.69;;;11.23;17.21
59391;BME280;53405;57.012;40.984;2023-04-15T10:45:01;101774.25;;;11.56;16.73
59391;BME280;53405;57.012;40.984;2023-04-15T10:47:42;101779.78;;;11.53;16.75
59391;BME280;53405;57.012;40.984;2023-04-15T10:50:12;101739.81;;;10.79;17.50
59391;BME280;53405;57.012;40.984;2023-04-15T10:52:41;101774.13;;;11.09;17.24
59391;BME280;53405;57.012;40.984;2023-04-15T10:55:17;101771.47;;;11.18;16.99
59391;BME280;53405;57.012;40.984;2023-04-15T10:57:52;101774.38;;;11.35;16.82
59391;BME280;53405;57.012;40.984;2023-04-15T11:00:27;101774.16;;;11.85;16.53
59391;BME280;53405;57.012;40.984;2023-04-15T11:03:07;101757.75;;;11.91;16.24
59391;BME280;53405;57.012;40.984;2023-04-15T11:08:10;101759.53;;;12.20;16.80
59391;BME280;53405;57.012;40.984;2023-04-15T11:15:42;101765.75;;;12.75;16.18
59391;BME280;53405;57.012;40.984;2023-04-15T11:18:21;101765.69;;;13.20;16.10
59391;BME280;53405;57.012;40.984;2023-04-15T11:20:56;101759.75;;;13.89;16.83
59391;BME280;53405;57.012;40.984;2023-04-15T11:23:32;101763.50;;;14.47;15.90
59391;BME280;53405;57.012;40.984;2023-04-15T11:26:05;101749.97;;;14.16;16.66
59391;BME280;53405;57.012;40.984;2023-04-15T11:28:39;101755.34;;;13.71;14.87
59391;BME280;53405;57.012;40.984;2023-04-15T11:31:16;101756.06;;;12.65;15.78
59391;BME280;53405;57.012;40.984;2023-04-15T11:33:59;101756.25;;;13.00;16.12
59391;BME280;53405;57.012;40.984;2023-04-15T11:36:30;101755.16;;;13.39;15.20
59391;BME280;53405;57.012;40.984;2023-04-15T11:39:06;101751.25;;;13.51;15.11
59391;BME280;53405;57.012;40.984;2023-04-15T11:41:35;101742.03;;;12.65;15.16
59391;BME280;53405;57.012;40.984;2023-04-15T11:44:14;101741.03;;;12.20;15.61
59391;BME280;53405;57.012;40.984;2023-04-15T11:46:47;101745.09;;;12.42;15.63
59391;BME280;53405;57.012;40.984;2023-04-15T11:49:29;101720.75;;;12.84;15.53
59391;BME280;53405;57.012;40.984;2023-04-15T11:51:58;101721.94;;;13.70;15.39
59391;BME280;53405;57.012;40.984;2023-04-15T11:54:28;101723.16;;;13.14;15.37
59391;BME280;53405;57.012;40.984;2023-04-15T11:57:00;101732.16;;;13.65;16.40
59391;BME280;53405;57.012;40.984;2023-04-15T11:59:42;101702.06;;;14.01;15.66
59391;BME280;53405;57.012;40.984;2023-04-15T12:02:13;101713.06;;;12.91;15.48
59391;BME280;53405;57.012;40.984;2023-04-15T12:04:43;101712.59;;;12.78;15.97
59391;BME280;53405;57.012;40.984;2023-04-15T12:07:14;101711.50;;;12.71;15.86
59391;BME280;53405;57.012;40.984;2023-04-15T12:09:54;101714.16;;;12.53;15.45
59391;BME280;53405;57.012;40.984;2023-04-15T12:12:28;101703.59;;;12.71;15.46
59391;BME280;53405;57.012;40.984;2023-04-15T12:14:59;101709.13;;;12.77;15.13
59391;BME280;53405;57.012;40.984;2023-04-15T12:17:29;101699.81;;;12.55;15.48
59391;BME280;53405;57.012;40.984;2023-04-15T12:20:00;101697.22;;;12.45;15.63
59391;BME280;53405;57.012;40.984;2023-04-15T12:22:36;101686.84;;;12.34;15.47
59391;BME280;53405;57.012;40.984;2023-04-15T12:25:07;101674.13;;;12.47;15.50
59391;BME280;53405;57.012;40.984;2023-04-15T12:27:38;101700.50;;;12.93;15.50
59391;BME280;53405;57.012;40.984;2023-04-15T12:30:09;101704.72;;;12.86;15.84
59391;BME280;53405;57.012;40.984;2023-04-15T12:32:41;101696.66;;;12.70;15.83
59391;BME280;53405;57.012;40.984;2023-04-15T12:35:12;101678.56;;;12.47;15.68
59391;BME280;53405;57.012;40.984;2023-04-15T12:37:42;101701.81;;;12.43;16.02
59391;BME280;53405;57.012;40.984;2023-04-15T12:40:12;101676.41;;;12.78;16.31
59391;BME280;53405;57.012;40.984;2023-04-15T12:42:43;101693.97;;;13.24;15.52
59391;BME280;53405;57.012;40.984;2023-04-15T12:45:14;101674.75;;;12.77;15.83
59391;BME280;53405;57.012;40.984;2023-04-15T12:47:44;101689.16;;;12.83;15.85
59391;BME280;53405;57.012;40.984;2023-04-15T12:50:14;101695.50;;;12.54;15.94
59391;BME280;53405;57.012;40.984;2023-04-15T12:52:45;101695.63;;;12.07;16.03
59391;BME280;53405;57.012;40.984;2023-04-15T12:55:17;101689.03;;;11.83;16.53
59391;BME280;53405;57.012;40.984;2023-04-15T12:57:49;101673.19;;;11.83;16.58
59391;BME280;53405;57.012;40.984;2023-04-15T13:00:19;101703.09;;;11.74;16.60
59391;BME280;53405;57.012;40.984;2023-04-15T13:02:49;101696.09;;;11.92;16.54
59391;BME280;53405;57.012;40.984;2023-04-15T13:05:20;101690.16;;;11.71;16.56
59391;BME280;53405;57.012;40.984;2023-04-15T13:07:50;101664.28;;;11.47;16.51
59391;BME280;53405;57.012;40.984;2023-04-15T13:10:21;101686.84;;;11.69;16.20
59391;BME280;53405;57.012;40.984;2023-04-15T13:12:51;101681.94;;;11.46;16.38
59391;BME280;53405;57.012;40.984;2023-04-15T13:15:22;101691.31;;;11.58;16.54